createdAt,value
2019-04-05T00:00:07.705Z,6.00
2019-04-05T00:02:37.334Z,5.80
2019-04-05T00:05:07.494Z,5.90
2019-04-05T00:07:36.915Z,6.00
2019-04-05T00:10:08.277Z,6.10
2019-04-05T00:12:37.696Z,6.10
2019-04-05T00:15:15.014Z,6.00
2019-04-05T00:17:38.642Z,5.80
2019-04-05T00:20:08.541Z,5.70
2019-04-05T00:22:37.922Z,5.80
2019-04-05T00:25:08.453Z,5.80
2019-04-05T00:27:37.829Z,5.60
2019-04-05T00:30:07.650Z,5.60
2019-04-05T00:32:36.962Z,5.70
2019-04-05T00:35:06.594Z,5.80
2019-04-05T00:37:35.999Z,6.00
2019-04-05T00:40:06.297Z,6.00
2019-04-05T00:42:35.613Z,6.20
2019-04-05T00:45:06.208Z,6.30
2019-04-05T00:47:35.660Z,6.20
2019-04-05T00:50:05.516Z,6.20
2019-04-05T00:52:34.916Z,6.20
2019-04-05T00:55:05.745Z,6.30
2019-04-05T00:57:35.074Z,6.20
2019-04-05T01:00:05.556Z,6.30
2019-04-05T01:02:34.881Z,6.30
2019-04-05T01:05:04.450Z,6.10
2019-04-05T01:07:33.852Z,6.00
2019-04-05T01:10:03.217Z,6.00
2019-04-05T01:12:33.333Z,6.00
2019-04-05T01:15:02.957Z,6.10
2019-04-05T01:17:32.643Z,6.10
2019-04-05T01:20:03.757Z,6.00
2019-04-05T01:22:35.005Z,6.00
2019-04-05T01:25:05.930Z,5.80
2019-04-05T01:27:37.870Z,5.80
2019-04-05T01:30:08.009Z,5.70
2019-04-05T01:32:37.397Z,5.90
2019-04-05T01:35:06.993Z,5.90
2019-04-05T01:37:37.454Z,5.90
2019-04-05T01:40:08.151Z,6.00
2019-04-05T01:42:38.562Z,5.90
2019-04-05T01:45:09.360Z,6.00
2019-04-05T01:47:38.774Z,5.90
2019-04-05T01:50:09.292Z,5.90
2019-04-05T01:52:39.201Z,5.80
2019-04-05T01:55:09.972Z,5.70
2019-04-05T01:57:39.317Z,5.60
2019-04-05T02:00:10.298Z,5.70
2019-04-05T02:02:39.682Z,5.80
2019-04-05T02:05:09.555Z,5.60
2019-04-05T02:07:39.194Z,5.70
2019-04-05T02:10:10.508Z,5.80
2019-04-05T02:12:40.498Z,5.70
2019-04-05T02:15:12.180Z,5.70
2019-04-05T02:17:41.582Z,5.50
2019-04-05T02:20:11.366Z,5.70
2019-04-05T02:22:40.748Z,5.90
2019-04-05T02:25:10.779Z,5.90
2019-04-05T02:27:40.169Z,6.00
2019-04-05T02:30:09.822Z,5.90
2019-04-05T02:32:39.192Z,6.20
2019-04-05T02:35:09.688Z,6.20
2019-04-05T02:37:41.774Z,6.10
2019-04-05T02:40:13.264Z,6.20
2019-04-05T02:42:44.979Z,6.20
2019-04-05T02:45:15.014Z,6.10
2019-04-05T02:47:51.505Z,5.90
2019-04-05T02:50:21.043Z,5.80
2019-04-05T02:52:53.387Z,5.80
2019-04-05T02:55:24.182Z,5.70
2019-04-05T02:57:53.973Z,5.70
2019-04-05T03:00:23.420Z,5.80
2019-04-05T03:02:53.135Z,6.00
2019-04-05T03:05:24.556Z,5.90
2019-04-05T03:07:53.941Z,6.00
2019-04-05T03:10:53.478Z,6.10
2019-04-05T03:13:24.050Z,6.00
2019-04-05T03:15:56.689Z,6.20
2019-04-05T03:18:27.998Z,6.20
2019-04-05T03:21:00.479Z,6.20
2019-04-05T03:23:32.755Z,6.10
2019-04-05T09:04:04.443Z,6.90
2019-04-05T09:06:33.843Z,7.00
2019-04-05T09:09:05.115Z,6.90
2019-04-05T09:11:34.418Z,6.90
2019-04-05T09:14:03.716Z,6.70
2019-04-05T09:16:33.078Z,7.10
2019-04-05T09:19:02.573Z,7.40
2019-04-05T09:21:31.976Z,7.30
2019-04-05T09:24:01.432Z,7.30
2019-04-05T09:26:30.834Z,7.30
2019-04-05T09:29:00.221Z,7.20
2019-04-05T09:31:29.598Z,7.00
2019-04-05T09:33:58.892Z,6.70
2019-04-05T09:36:28.386Z,6.70
2019-04-05T09:38:57.793Z,6.90
2019-04-05T09:41:27.170Z,7.20
2019-04-05T09:43:56.551Z,7.60
2019-04-05T09:46:25.910Z,7.80
2019-04-05T09:48:55.319Z,7.90
2019-04-05T09:51:24.750Z,7.80
2019-04-05T09:53:54.076Z,7.90
2019-04-05T09:56:23.487Z,7.30
2019-04-05T09:58:52.845Z,7.50
2019-04-05T10:01:22.226Z,7.60
2019-04-05T10:03:51.552Z,7.70
2019-04-05T10:06:20.919Z,7.60
2019-04-05T10:08:50.317Z,7.50
2019-04-05T10:11:19.738Z,7.70
2019-04-05T10:13:49.219Z,7.80
2019-04-05T10:16:18.635Z,8.00
2019-04-05T10:18:48.010Z,8.10
2019-04-05T10:21:17.461Z,7.90
2019-04-05T10:23:46.792Z,7.90
2019-04-05T10:26:16.282Z,8.00
2019-04-05T10:28:45.701Z,8.30
2019-04-05T10:31:15.198Z,8.30
2019-04-05T10:33:44.626Z,8.10
2019-04-05T10:36:14.172Z,8.20
2019-04-05T10:38:43.504Z,8.10
2019-04-05T10:41:12.913Z,8.00
2019-04-05T10:43:42.268Z,8.10
2019-04-05T10:46:11.683Z,8.20
2019-04-05T10:48:41.103Z,8.20
2019-04-05T10:51:10.523Z,8.40
2019-04-05T10:53:39.998Z,8.10
2019-04-05T10:56:09.442Z,8.00
2019-04-05T10:58:38.914Z,8.30
2019-04-05T11:01:08.694Z,8.80
2019-04-05T11:03:38.045Z,9.00
2019-04-05T11:06:07.458Z,9.30
2019-04-05T11:08:36.817Z,9.20
2019-04-05T11:11:06.292Z,8.90
2019-04-05T11:13:35.822Z,8.80
2019-04-05T11:16:05.277Z,8.80
2019-04-05T11:18:34.758Z,8.40
2019-04-05T11:21:04.227Z,8.30
2019-04-05T11:23:33.721Z,8.40
2019-04-05T11:26:03.135Z,8.60
2019-04-05T11:28:32.538Z,9.20
2019-04-05T11:31:02.069Z,9.30
2019-04-05T11:33:31.557Z,9.10
2019-04-05T11:36:01.285Z,8.90
2019-04-05T11:38:30.788Z,8.90
2019-04-05T11:41:00.462Z,8.70
2019-04-05T11:43:31.948Z,9.10
2019-04-05T11:46:01.493Z,9.30
2019-04-05T11:48:32.616Z,9.10
2019-04-05T11:51:02.002Z,9.00
2019-04-05T11:53:31.459Z,8.70
2019-04-05T11:56:13.471Z,8.90
2019-04-05T11:58:32.281Z,9.10
2019-04-05T12:01:15.914Z,8.90
2019-04-05T12:03:45.389Z,8.80
2019-04-05T12:06:14.815Z,8.60
2019-04-05T12:08:44.331Z,8.70
2019-04-05T12:11:13.783Z,9.00
2019-04-05T12:13:43.175Z,9.20
2019-04-05T12:16:13.219Z,9.40
2019-04-05T12:18:42.677Z,9.20
2019-04-05T12:21:15.146Z,9.30
2019-04-05T12:23:44.624Z,9.70
2019-04-05T12:26:14.062Z,9.60
2019-04-05T12:28:43.474Z,9.30
2019-04-05T12:31:12.944Z,9.10
2019-04-05T12:33:42.350Z,9.00
2019-04-05T12:36:11.762Z,8.90
2019-04-05T12:38:41.179Z,8.80
2019-04-05T12:41:11.511Z,8.70
2019-04-05T12:43:43.953Z,8.80
2019-04-05T12:46:14.973Z,8.80
2019-04-05T12:48:45.441Z,8.90
2019-04-05T12:51:15.676Z,9.00
2019-04-05T12:53:45.605Z,9.00
2019-04-05T12:56:15.002Z,8.80
2019-04-05T12:58:44.457Z,8.90
2019-04-05T13:01:13.866Z,8.90
2019-04-05T13:03:43.311Z,8.80
2019-04-05T13:06:12.912Z,8.70
2019-04-05T13:08:42.374Z,8.90
2019-04-05T13:11:11.844Z,9.00
2019-04-05T13:13:41.265Z,9.20
2019-04-05T13:16:10.972Z,9.20
2019-04-05T13:18:40.534Z,9.30
2019-04-05T13:21:15.333Z,9.20
2019-04-05T13:23:41.161Z,9.30
2019-04-05T13:26:12.246Z,9.30
2019-04-05T13:28:46.484Z,9.20
2019-04-05T13:31:18.247Z,9.00
2019-04-05T13:33:47.213Z,8.80
2019-04-05T13:36:16.740Z,8.80
2019-04-05T13:38:54.663Z,8.80
2019-04-05T13:41:19.067Z,8.80
2019-04-05T13:43:48.470Z,8.90
2019-04-05T13:46:22.687Z,9.00
2019-04-05T13:48:48.982Z,9.20
2019-04-05T13:51:27.650Z,9.30
2019-04-05T13:53:49.613Z,9.20
2019-04-05T13:56:19.127Z,9.20
2019-04-05T13:58:48.537Z,9.00
2019-04-05T14:01:20.326Z,9.10
2019-04-05T14:03:50.271Z,9.20
2019-04-05T14:06:20.154Z,9.40
2019-04-05T14:08:49.667Z,9.40
2019-04-05T14:11:19.136Z,9.40
2019-04-05T14:13:48.563Z,9.20
2019-04-05T14:16:17.997Z,9.10
2019-04-05T14:18:49.749Z,9.10
2019-04-05T14:21:20.535Z,9.30
2019-04-05T14:23:51.293Z,9.30
2019-04-05T14:26:20.758Z,9.30
2019-04-05T14:28:52.883Z,9.30
2019-04-05T14:31:21.413Z,9.40
2019-04-05T14:33:54.210Z,9.40
2019-04-05T14:36:23.001Z,9.40
2019-04-05T14:38:53.326Z,9.40
2019-04-05T14:41:22.855Z,9.50
2019-04-05T14:43:52.295Z,9.40
2019-04-05T14:46:23.322Z,9.40
2019-04-05T14:48:52.799Z,9.50
2019-04-05T14:51:22.168Z,9.30
2019-04-05T14:53:51.607Z,9.20
2019-04-05T14:56:21.083Z,9.30
2019-04-05T14:58:50.466Z,9.30
2019-04-05T15:01:19.902Z,9.20
2019-04-05T15:03:49.300Z,9.20
2019-04-05T15:06:18.712Z,9.20
2019-04-05T15:08:50.376Z,9.30
2019-04-05T15:11:19.179Z,9.30
2019-04-05T15:13:48.967Z,9.30
2019-04-05T15:16:18.549Z,9.30
2019-04-05T15:18:47.972Z,9.40
2019-04-05T15:21:17.458Z,9.40
2019-04-05T15:23:46.820Z,9.50
2019-04-05T15:26:16.277Z,9.50
2019-04-05T15:28:45.814Z,9.50
2019-04-05T15:31:15.312Z,9.50
2019-04-05T15:33:44.896Z,9.40
2019-04-05T15:36:14.313Z,9.30
2019-04-05T15:38:43.700Z,9.10
2019-04-05T15:41:13.173Z,9.20
2019-04-05T15:43:42.632Z,9.10
2019-04-05T15:46:12.046Z,9.10
2019-04-05T15:48:41.621Z,9.10
2019-04-05T15:51:11.049Z,9.10
2019-04-05T15:53:40.423Z,9.10
2019-04-05T15:56:09.905Z,9.10
2019-04-05T15:58:39.311Z,9.20
2019-04-05T16:01:09.191Z,9.30
2019-04-05T16:03:38.594Z,9.50
2019-04-05T16:06:08.435Z,9.40
2019-04-05T16:08:37.861Z,9.40
2019-04-05T16:11:07.298Z,9.40
2019-04-05T16:13:36.673Z,9.50
2019-04-05T16:16:06.211Z,9.50
2019-04-05T16:18:35.617Z,9.60
2019-04-05T16:21:05.086Z,9.50
2019-04-05T16:23:34.538Z,9.50
2019-04-05T16:26:04.199Z,9.40
2019-04-05T16:28:33.630Z,9.50
2019-04-05T16:31:03.079Z,9.60
2019-04-05T16:33:32.491Z,9.40
2019-04-05T16:36:02.047Z,9.40
2019-04-05T16:38:31.478Z,9.40
2019-04-05T16:41:00.931Z,9.40
2019-04-05T16:43:30.324Z,9.50
2019-04-05T16:45:59.833Z,9.60
2019-04-05T16:48:29.598Z,9.50
2019-04-05T16:50:58.946Z,9.60
2019-04-05T16:53:28.404Z,9.50
2019-04-05T16:55:57.892Z,9.30
2019-04-05T16:58:27.318Z,9.30
2019-04-05T17:00:58.784Z,9.40
2019-04-05T17:03:28.173Z,9.50
2019-04-05T17:05:57.699Z,9.50
2019-04-05T17:08:27.286Z,9.50
2019-04-05T17:10:56.688Z,9.50
2019-04-05T17:13:26.286Z,9.50
2019-04-05T17:15:55.850Z,9.50
2019-04-05T17:18:25.313Z,9.30
2019-04-05T17:20:54.769Z,9.20
2019-04-05T17:23:24.343Z,9.10
2019-04-05T17:25:53.934Z,9.40
2019-04-05T17:28:23.477Z,9.40
2019-04-05T17:30:52.848Z,9.40
2019-04-05T17:33:22.240Z,9.50
2019-04-05T17:35:51.663Z,9.50
2019-04-05T17:38:21.094Z,9.60
2019-04-05T17:40:50.584Z,9.60
2019-04-05T17:43:20.153Z,9.60
2019-04-05T17:45:49.637Z,9.70
2019-04-05T17:48:22.158Z,9.60
2019-04-05T17:50:51.843Z,9.50
2019-04-05T17:53:21.219Z,9.60
2019-04-05T17:55:50.608Z,9.70
2019-04-05T17:58:20.144Z,9.60
2019-04-05T18:00:50.495Z,9.70
2019-04-05T18:03:20.058Z,9.70
2019-04-05T18:05:49.615Z,9.50
2019-04-05T18:08:19.003Z,9.50
2019-04-05T18:10:48.515Z,9.60
2019-04-05T18:13:18.021Z,9.60
2019-04-05T18:15:52.742Z,9.40
2019-04-05T18:18:18.508Z,9.30
2019-04-05T18:20:48.125Z,9.20
2019-04-05T18:23:24.732Z,9.20
2019-04-05T18:25:49.089Z,9.20
2019-04-05T18:28:18.525Z,9.40
2019-04-05T18:30:48.398Z,9.20
2019-04-05T18:33:17.875Z,9.40
2019-04-05T18:35:47.431Z,9.40
2019-04-05T18:38:16.930Z,9.40
2019-04-05T18:40:46.355Z,9.40
2019-04-05T18:43:16.005Z,9.50
2019-04-05T18:45:45.441Z,9.40
2019-04-05T18:48:14.966Z,9.20
2019-04-05T18:50:44.511Z,9.10
2019-04-05T18:53:13.973Z,9.00
2019-04-05T18:55:43.455Z,9.40
2019-04-05T18:58:13.012Z,9.30
2019-04-05T19:00:42.566Z,9.20
2019-04-05T19:03:11.999Z,9.10
2019-04-05T19:05:42.235Z,8.90
2019-04-05T19:08:11.787Z,8.80
2019-04-05T19:10:41.200Z,8.60
2019-04-05T19:13:10.781Z,8.50
2019-04-05T19:15:40.159Z,8.60
2019-04-05T19:18:09.736Z,8.80
2019-04-05T19:20:39.284Z,9.00
2019-04-05T19:23:08.925Z,8.80
2019-04-05T19:25:38.456Z,8.80
2019-04-05T19:28:08.006Z,9.00
2019-04-05T19:48:31.444Z,8.70
2019-04-05T19:50:47.050Z,8.80
2019-04-05T19:53:16.816Z,8.90
2019-04-05T19:55:46.408Z,8.90
2019-04-05T19:58:15.912Z,8.70
2019-04-05T20:00:45.656Z,8.80
2019-04-05T20:03:15.165Z,9.00
2019-04-05T20:05:44.650Z,8.90
2019-04-05T20:08:14.232Z,8.80
2019-04-05T20:10:43.770Z,8.70
2019-04-05T20:13:13.244Z,8.60
2019-04-05T20:15:42.718Z,8.60
2019-04-05T20:18:12.150Z,8.70
2019-04-05T20:20:41.541Z,8.90
2019-04-05T20:23:11.069Z,9.10
2019-04-05T20:25:40.538Z,9.00
2019-04-05T20:28:10.213Z,9.10
2019-04-05T20:30:41.037Z,9.00
2019-04-05T20:33:10.621Z,9.20
2019-04-05T20:35:39.996Z,9.10
2019-04-05T20:38:09.384Z,9.00
2019-04-05T20:40:38.747Z,8.90
2019-04-05T20:43:08.137Z,8.80
2019-04-05T20:45:37.517Z,8.90
2019-04-05T20:48:07.295Z,8.70
2019-04-05T20:50:36.775Z,8.60
2019-04-05T20:53:06.334Z,8.40
2019-04-05T20:55:37.329Z,8.40
2019-04-05T20:58:06.923Z,8.60
2019-04-05T21:00:36.377Z,8.70
2019-04-05T21:03:06.064Z,8.50
2019-04-05T21:05:35.449Z,8.40
2019-04-05T21:08:04.818Z,8.60
2019-04-05T21:10:34.443Z,8.60
2019-04-05T21:13:04.168Z,8.40
2019-04-05T21:15:33.638Z,8.20
2019-04-05T21:18:03.062Z,8.10
2019-04-05T21:20:32.415Z,8.20
2019-04-05T21:23:01.934Z,8.50
2019-04-05T21:25:31.366Z,8.20
2019-04-05T21:28:00.867Z,8.10
2019-04-05T21:30:30.251Z,8.00
2019-04-05T21:32:59.721Z,8.00
2019-04-05T21:35:29.078Z,8.00
2019-04-05T21:37:58.475Z,7.90
2019-04-05T21:40:27.836Z,8.10
2019-04-05T21:42:57.229Z,8.30
2019-04-05T21:45:26.674Z,8.30
2019-04-05T21:47:56.078Z,8.40
2019-04-05T21:50:25.550Z,8.30
2019-04-05T21:52:54.902Z,8.10
2019-04-05T21:55:24.292Z,8.30
2019-04-05T21:57:53.883Z,8.30
2019-04-05T22:00:27.607Z,8.20
2019-04-05T22:02:57.031Z,8.20
2019-04-05T22:05:26.458Z,8.10
2019-04-05T22:07:55.880Z,8.00
2019-04-05T22:10:25.325Z,7.80
2019-04-05T22:12:54.767Z,7.70
2019-04-05T22:15:24.309Z,7.80
2019-04-05T22:17:53.749Z,7.90
2019-04-05T22:20:23.141Z,7.90
2019-04-05T22:22:52.544Z,7.80
2019-04-05T22:25:21.996Z,7.80
2019-04-05T22:27:51.353Z,7.30
2019-04-05T22:30:20.810Z,7.30
2019-04-05T22:32:50.253Z,7.20
2019-04-05T22:35:19.676Z,7.20
2019-04-05T22:37:49.145Z,7.30
2019-04-05T22:40:18.569Z,7.30
2019-04-05T22:42:47.984Z,7.30
2019-04-05T22:45:17.388Z,7.20
2019-04-05T22:47:46.904Z,7.20
2019-04-05T22:50:16.359Z,7.30
2019-04-05T22:52:45.882Z,7.30
2019-04-05T22:55:15.314Z,7.40
2019-04-05T22:57:44.717Z,7.30
2019-04-05T23:00:14.134Z,7.20
2019-04-05T23:02:43.586Z,7.10
2019-04-05T23:05:12.985Z,7.10
2019-04-05T23:07:42.353Z,7.00
2019-04-05T23:10:11.757Z,7.10
2019-04-05T23:12:41.113Z,7.00
2019-04-05T23:15:10.685Z,7.10
2019-04-05T23:17:40.120Z,7.00
2019-04-05T23:20:09.762Z,7.00
2019-04-05T23:22:39.151Z,7.00
2019-04-05T23:25:08.744Z,7.00
2019-04-05T23:27:38.140Z,6.90
2019-04-05T23:30:09.387Z,6.80
2019-04-05T23:32:38.789Z,6.80
2019-04-05T23:35:08.453Z,7.00
2019-04-05T23:37:37.886Z,6.90
2019-04-05T23:40:07.987Z,7.00
2019-04-05T23:42:37.254Z,6.80
2019-04-05T23:45:06.901Z,6.90
2019-04-05T23:47:36.293Z,6.90
2019-04-05T23:50:06.359Z,6.90
2019-04-05T23:52:35.890Z,6.70
2019-04-05T23:55:05.920Z,6.60
2019-04-05T23:57:35.215Z,6.60
